Time;durP1;ratioP1;P1;durP2;ratioP2;P2;SDS_P1;SDS_P2;PMS_P1;PMS_P2;Temp;Humidity;BMP_temperature;BMP_pressure;BME280_temperature;BME280_humidity;BME280_pressure;Samples;Min_cycle;Max_cycle;Signal;HPM_P1;HPM_P2
2023/01/10 00:00:25;;;;;;;8.13;3.53;;;;;;;13.91;nan;102777.28;4831166;29;20530;-88
2023/01/10 00:02:53;;;;;;;7.97;4.00;;;;;;;13.87;nan;102781.38;4843228;29;20507;-88
2023/01/10 00:05:24;;;;;;;9.40;4.13;;;;;;;13.83;nan;102783.63;4812937;29;20495;-88
2023/01/10 00:08:03;;;;;;;6.60;3.33;;;;;;;13.77;nan;102778.78;4860327;29;20472;-89
2023/01/10 00:10:32;;;;;;;8.37;3.60;;;;;;;13.74;nan;102781.84;4844426;29;20517;-88
2023/01/10 00:15:50;;;;;;;11.07;3.67;;;;;;;13.72;nan;102778.41;4836162;29;20458;-88
2023/01/10 00:18:21;;;;;;;15.00;3.77;;;;;;;13.67;nan;102770.63;4853715;29;20984;-88
2023/01/10 00:20:50;;;;;;;15.10;3.13;;;;;;;13.77;nan;102774.13;4902709;29;20955;-88
2023/01/10 00:23:20;;;;;;;13.50;3.57;;;;;;;13.79;nan;102772.09;4887735;29;20449;-88
2023/01/10 00:25:49;;;;;;;13.53;3.00;;;;;;;13.86;nan;102782.41;4871706;29;20495;-88
2023/01/10 00:28:18;;;;;;;12.37;3.20;;;;;;;13.87;nan;102770.38;4887272;29;20897;-88
2023/01/10 00:30:53;;;;;;;17.33;3.00;;;;;;;13.90;nan;102770.91;4902649;29;21023;-88
2023/01/10 00:33:32;;;;;;;12.03;2.93;;;;;;;13.92;nan;102770.75;4868957;29;20453;-88
2023/01/10 00:36:04;;;;;;;18.23;3.00;;;;;;;13.92;nan;102773.50;4899779;29;20456;-88
2023/01/10 00:38:39;;;;;;;10.70;2.30;;;;;;;14.01;nan;102781.63;4917558;29;20477;-87
2023/01/10 00:43:55;;;;;;;13.53;2.97;;;;;;;13.99;nan;102766.31;4872337;29;20456;-88
2023/01/10 00:44:02;;;;;;;16.97;2.90;;;;;;;14.03;nan;102765.84;4890526;29;20463;-88
2023/01/10 00:46:31;;;;;;;63.10;2.80;;;;;;;14.08;nan;102771.66;4871818;29;20562;-88
2023/01/10 00:48:59;;;;;;;10.30;2.40;;;;;;;14.08;nan;102759.81;4872309;29;20464;-88
2023/01/10 00:51:27;;;;;;;13.97;3.30;;;;;;;14.12;nan;102758.44;4872215;29;20449;-88
2023/01/10 00:53:58;;;;;;;13.70;2.90;;;;;;;14.18;nan;102752.28;4890729;29;20465;-90
2023/01/10 00:56:27;;;;;;;13.00;3.07;;;;;;;14.27;nan;102756.75;4907792;29;20452;-87
2023/01/10 00:58:56;;;;;;;10.53;2.80;;;;;;;14.34;nan;102757.81;4917244;29;20444;-87
2023/01/10 01:01:24;;;;;;;13.60;2.60;;;;;;;14.36;nan;102750.25;4895529;29;20480;-87
2023/01/10 01:03:52;;;;;;;11.10;2.83;;;;;;;14.43;nan;102761.50;4910712;29;20447;-88
2023/01/10 01:06:20;;;;;;;12.60;3.27;;;;;;;14.45;nan;102753.91;4906180;29;21072;-88
2023/01/10 01:08:48;;;;;;;14.00;4.40;;;;;;;14.42;nan;102752.38;4812078;29;20456;-89
2023/01/10 01:11:16;;;;;;;9.57;2.87;;;;;;;14.39;nan;102755.44;4796729;29;20963;-87
2023/01/10 01:13:44;;;;;;;12.00;3.23;;;;;;;14.41;nan;102750.66;4819285;29;20503;-88
2023/01/10 01:16:14;;;;;;;15.63;3.17;;;;;;;14.44;nan;102741.16;4830048;29;20468;-88
2023/01/10 01:18:42;;;;;;;11.00;2.70;;;;;;;14.48;nan;102739.81;4794435;29;20449;-88
2023/01/10 01:21:11;;;;;;;12.73;2.70;;;;;;;14.51;nan;102737.56;4817265;29;20471;-87
2023/01/10 01:23:39;;;;;;;13.43;3.47;;;;;;;14.57;nan;102743.44;4812455;29;20827;-88
2023/01/10 01:26:07;;;;;;;15.73;3.60;;;;;;;14.64;nan;102738.94;4795811;29;20493;-88
2023/01/10 01:28:35;;;;;;;12.07;2.70;;;;;;;14.64;nan;102736.19;4811799;29;20460;-87
2023/01/10 01:31:07;;;;;;;14.10;3.70;;;;;;;14.69;nan;102740.16;4808680;29;21010;-87
2023/01/10 01:33:36;;;;;;;10.53;3.87;;;;;;;14.65;nan;102738.78;4858326;29;20461;-88
2023/01/10 01:36:08;;;;;;;9.80;2.77;;;;;;;14.71;nan;102737.25;4879163;29;20464;-87
2023/01/10 01:38:36;;;;;;;10.67;3.20;;;;;;;14.69;nan;102728.28;4886031;29;20480;-88
2023/01/10 01:41:55;;;;;;;16.63;3.03;;;;;;;14.69;nan;102733.78;4870656;29;21025;-89
2023/01/10 01:44:00;;;;;;;15.63;3.83;;;;;;;14.62;nan;102708.88;4890832;29;20464;-88
2023/01/10 01:46:30;;;;;;;14.43;4.90;;;;;;;14.72;nan;102731.56;4916601;29;20484;-87
2023/01/10 01:48:58;;;;;;;13.97;4.67;;;;;;;14.70;nan;102738.28;4901026;29;20464;-88
2023/01/10 01:51:28;;;;;;;12.03;3.87;;;;;;;14.68;nan;102734.81;4884538;29;20471;-88
2023/01/10 01:53:59;;;;;;;11.13;4.50;;;;;;;14.67;nan;102741.34;4885920;29;20460;-87
2023/01/10 01:56:34;;;;;;;14.77;4.17;;;;;;;14.64;nan;102730.69;4916836;29;20930;-88
2023/01/10 01:59:06;;;;;;;8.00;3.30;;;;;;;14.63;nan;102734.47;4886308;29;20989;-88
2023/01/10 02:01:34;;;;;;;13.30;3.70;;;;;;;14.67;nan;102744.97;4899216;29;20465;-89
2023/01/10 02:04:53;;;;;;;12.23;3.80;;;;;;;14.70;nan;102741.03;4866238;29;20508;-89
2023/01/10 02:07:23;;;;;;;15.50;2.60;;;;;;;14.76;nan;102734.84;4882144;29;20564;-88
2023/01/10 02:09:56;;;;;;;12.10;2.20;;;;;;;14.77;nan;102731.91;4885769;29;20592;-88
2023/01/10 02:12:25;;;;;;;15.30;2.80;;;;;;;14.76;nan;102732.94;4901779;29;20456;-87
2023/01/10 02:15:02;;;;;;;14.37;2.83;;;;;;;14.84;nan;102737.56;4870321;29;20955;-87
2023/01/10 02:17:34;;;;;;;11.30;3.10;;;;;;;14.89;nan;102740.66;4885834;29;20461;-87
2023/01/10 02:20:09;;;;;;;14.87;2.53;;;;;;;14.92;nan;102744.97;4916278;29;20461;-87
2023/01/10 02:23:14;;;;;;;14.37;3.20;;;;;;;14.94;nan;102754.78;4870226;29;20460;-88
2023/01/10 02:26:04;;;;;;;16.47;4.13;;;;;;;14.91;nan;102738.59;4916948;29;20857;-89
2023/01/10 02:29:07;;;;;;;22.60;3.90;;;;;;;14.94;nan;102749.28;4911227;29;20461;-88
2023/01/10 02:31:48;;;;;;;14.03;3.43;;;;;;;14.93;nan;102742.06;4931769;29;20959;-87
2023/01/10 02:34:41;;;;;;;15.97;3.50;;;;;;;14.91;nan;102743.25;4907466;29;21065;-88
2023/01/10 02:37:50;;;;;;;8.27;2.90;;;;;;;14.90;nan;102742.38;4888131;29;20815;-88
2023/01/10 02:40:45;;;;;;;10.30;3.00;;;;;;;14.89;nan;102746.19;4900768;29;20468;-88
2023/01/10 02:43:58;;;;;;;14.73;3.90;;;;;;;14.92;nan;102748.59;4900833;29;20445;-88
2023/01/10 02:46:28;;;;;;;14.03;3.90;;;;;;;14.92;nan;102745.84;4902203;29;20982;-88
2023/01/10 02:48:56;;;;;;;16.73;3.70;;;;;;;14.94;nan;102754.78;4869542;29;20472;-88
2023/01/10 02:51:28;;;;;;;15.27;3.07;;;;;;;14.93;nan;102746.69;4900410;29;20487;-88
2023/01/10 02:54:07;;;;;;;13.23;3.20;;;;;;;14.94;nan;102751.16;4871085;29;20444;-88
2023/01/10 02:57:04;;;;;;;8.07;3.50;;;;;;;14.98;nan;102753.41;4917187;29;20549;-88
2023/01/10 02:59:52;;;;;;;11.33;3.27;;;;;;;14.98;nan;102772.69;4884940;29;20452;-88
2023/01/10 03:02:41;;;;;;;28.73;2.50;;;;;;;14.97;nan;102770.97;4932123;29;20459;-88
2023/01/10 03:05:44;;;;;;;15.80;3.53;;;;;;;14.96;nan;102780.25;4904272;29;20507;-88
2023/01/10 03:08:49;;;;;;;13.07;3.43;;;;;;;14.94;nan;102768.56;4897944;29;20464;-88
2023/01/10 03:11:38;;;;;;;10.50;2.80;;;;;;;14.93;nan;102763.22;4876631;29;20453;-88
2023/01/10 03:14:26;;;;;;;17.70;3.63;;;;;;;14.96;nan;102769.25;4900614;29;20803;-88
2023/01/10 03:17:00;;;;;;;14.73;3.07;;;;;;;14.95;nan;102759.25;4872548;29;20470;-88
2023/01/10 03:19:44;;;;;;;12.13;3.70;;;;;;;14.96;nan;102774.75;4890175;29;20876;-88
2023/01/10 03:22:12;;;;;;;18.60;3.17;;;;;;;14.97;nan;102775.63;4919358;29;20464;-88
2023/01/10 03:24:44;;;;;;;17.03;3.43;;;;;;;14.96;nan;102777.50;4872649;29;20460;-87
2023/01/10 03:27:18;;;;;;;13.83;2.90;;;;;;;14.97;nan;102779.22;4884993;29;21022;-88
2023/01/10 03:30:02;;;;;;;10.03;3.40;;;;;;;14.90;nan;102758.91;4891799;29;20806;-88
2023/01/10 03:32:31;;;;;;;15.53;3.40;;;;;;;14.93;nan;102769.59;4873424;29;20950;-88
2023/01/10 03:35:00;;;;;;;10.03;3.20;;;;;;;14.93;nan;102769.59;4885387;29;20457;-88
2023/01/10 03:37:49;;;;;;;16.70;2.83;;;;;;;14.95;nan;102773.03;4872779;29;20811;-88
2023/01/10 03:40:22;;;;;;;10.73;3.13;;;;;;;14.91;nan;102766.13;4888431;29;20456;-87
2023/01/10 03:46:11;;;;;;;13.50;3.43;;;;;;;14.89;nan;102762.69;4919746;29;20485;-88
2023/01/10 03:48:42;;;;;;;18.50;5.07;;;;;;;14.89;nan;102762.69;4795089;29;20457;-89
2023/01/10 03:51:11;;;;;;;12.17;2.97;;;;;;;14.89;nan;102757.19;4810189;29;20449;-87
2023/01/10 03:53:38;;;;;;;15.03;3.43;;;;;;;14.90;nan;102741.53;4807031;29;20462;-88
2023/01/10 03:56:06;;;;;;;13.00;3.27;;;;;;;14.90;nan;102736.03;4822594;29;20521;-88
2023/01/10 03:58:34;;;;;;;12.17;3.43;;;;;;;14.92;nan;102736.72;4805698;29;20518;-88
2023/01/10 04:01:02;;;;;;;13.93;3.37;;;;;;;14.91;nan;102729.47;4798789;29;20465;-88
2023/01/10 04:03:32;;;;;;;9.03;2.53;;;;;;;14.94;nan;102743.78;4798677;29;20605;-88
2023/01/10 04:06:00;;;;;;;10.23;2.87;;;;;;;14.95;nan;102739.13;4828633;29;20441;-89
2023/01/10 04:08:28;;;;;;;14.13;3.20;;;;;;;14.94;nan;102735.50;4799124;29;20464;-88
2023/01/10 04:10:59;;;;;;;11.77;3.23;;;;;;;14.89;nan;102729.66;4814064;29;20812;-89
2023/01/10 04:13:28;;;;;;;17.30;3.50;;;;;;;14.92;nan;102729.31;4863821;29;20516;-88
2023/01/10 04:15:58;;;;;;;10.53;3.47;;;;;;;14.96;nan;102741.72;4872856;29;20456;-88
2023/01/10 04:18:35;;;;;;;17.60;2.60;;;;;;;14.93;nan;102730.19;4872754;29;20457;-89
2023/01/10 04:21:07;;;;;;;12.70;2.83;;;;;;;14.92;nan;102728.44;4884734;29;20449;-89
2023/01/10 04:23:40;;;;;;;16.37;3.60;;;;;;;14.93;nan;102736.53;4873740;29;20464;-88
2023/01/10 04:26:09;;;;;;;14.07;5.23;;;;;;;14.91;nan;102726.72;4872144;29;20460;-89
2023/01/10 04:28:37;;;;;;;11.97;3.57;;;;;;;14.88;nan;102722.44;4887546;29;20818;-89
2023/01/10 04:31:10;;;;;;;7.53;3.30;;;;;;;14.88;nan;102727.06;4872108;29;20453;-89
2023/01/10 04:33:41;;;;;;;9.80;3.00;;;;;;;14.89;nan;102728.78;4902573;29;20449;-88
2023/01/10 04:36:10;;;;;;;15.83;3.10;;;;;;;14.90;nan;102727.75;4902438;29;20815;-89
2023/01/10 04:38:38;;;;;;;9.63;2.67;;;;;;;14.89;nan;102726.03;4887044;29;20464;-88
2023/01/10 04:41:06;;;;;;;9.40;2.37;;;;;;;14.92;nan;102729.31;4871831;29;20449;-88
2023/01/10 04:43:34;;;;;;;18.00;3.30;;;;;;;14.90;nan;102728.63;4886632;29;20452;-88
2023/01/10 04:46:04;;;;;;;9.47;2.53;;;;;;;14.89;nan;102712.28;4886748;29;20462;-89
2023/01/10 04:48:33;;;;;;;10.63;2.77;;;;;;;14.94;nan;102727.25;4871600;29;20453;-89
2023/01/10 04:51:11;;;;;;;17.40;4.50;;;;;;;14.95;nan;102734.47;4915639;29;20492;-87
2023/01/10 04:53:39;;;;;;;15.83;6.13;;;;;;;14.85;nan;102711.75;4901819;29;20460;-89
2023/01/10 04:56:09;;;;;;;17.30;5.10;;;;;;;14.96;nan;102735.34;4872033;29;20451;-87
2023/01/10 04:58:37;;;;;;;11.60;4.43;;;;;;;14.93;nan;102731.03;4862612;29;21037;-87
2023/01/10 05:01:16;;;;;;;9.33;3.73;;;;;;;14.93;nan;102739.28;4902375;29;21041;-88
2023/01/10 05:03:46;;;;;;;21.33;5.20;;;;;;;14.89;nan;102724.16;4871880;29;20524;-88
2023/01/10 05:06:16;;;;;;;10.97;4.10;;;;;;;14.92;nan;102723.81;4868313;29;20452;-87
2023/01/10 05:08:45;;;;;;;11.23;4.40;;;;;;;14.90;nan;102720.38;4898670;29;20473;-88
2023/01/10 05:11:15;;;;;;;16.63;3.23;;;;;;;14.94;nan;102715.38;4871350;29;20511;-88
2023/01/10 05:13:43;;;;;;;12.80;4.00;;;;;;;14.93;nan;102725.53;4886743;29;20523;-88
2023/01/10 05:16:14;;;;;;;11.17;3.30;;;;;;;14.94;nan;102729.13;4887024;29;20461;-88
2023/01/10 05:18:49;;;;;;;10.30;2.90;;;;;;;14.92;nan;102729.31;4886907;29;20461;-88
2023/01/10 05:21:17;;;;;;;8.00;3.03;;;;;;;14.89;nan;102726.91;4887325;29;20441;-88
2023/01/10 05:23:53;;;;;;;10.10;3.20;;;;;;;14.96;nan;102730.69;4867691;29;20579;-89
2023/01/10 05:26:22;;;;;;;14.00;3.03;;;;;;;14.97;nan;102732.41;4903255;29;20445;-88
2023/01/10 05:28:51;;;;;;;19.33;2.10;;;;;;;14.98;nan;102730.53;4830461;29;20459;-88
2023/01/10 05:31:24;;;;;;;5.77;1.90;;;;;;;15.01;nan;102739.28;4845566;29;20447;-88
2023/01/10 05:33:54;;;;;;;12.73;2.73;;;;;;;15.02;nan;102741.00;4875048;29;20447;-88
2023/01/10 05:36:25;;;;;;;9.50;3.00;;;;;;;15.01;nan;102747.53;4860437;29;20464;-87
2023/01/10 05:38:54;;;;;;;12.73;2.70;;;;;;;15.00;nan;102739.47;4841672;29;20517;-88
2023/01/10 05:41:23;;;;;;;9.20;1.80;;;;;;;15.03;nan;102739.09;4839520;29;20455;-87
2023/01/10 05:43:52;;;;;;;9.30;1.70;;;;;;;15.05;nan;102740.66;4841504;29;20460;-88
2023/01/10 05:46:21;;;;;;;11.60;2.30;;;;;;;15.07;nan;102745.97;4893391;29;20482;-88
2023/01/10 05:48:51;;;;;;;12.17;1.80;;;;;;;15.02;nan;102743.75;4853715;29;20490;-88
2023/01/10 05:51:19;;;;;;;8.07;1.37;;;;;;;15.02;nan;102748.38;4882935;29;20454;-88
2023/01/10 05:53:47;;;;;;;5.93;1.20;;;;;;;15.05;nan;102757.16;4882583;29;20454;-89
2023/01/10 05:56:22;;;;;;;6.57;1.90;;;;;;;15.01;nan;102744.78;4867282;29;20462;-87
2023/01/10 05:58:50;;;;;;;12.67;3.67;;;;;;;15.05;nan;102757.16;4852690;29;20457;-88
2023/01/10 06:01:31;;;;;;;9.00;3.37;;;;;;;15.05;nan;102762.69;4884022;29;20461;-87
2023/01/10 06:04:01;;;;;;;20.97;11.50;;;;;;;15.07;nan;102754.25;4881100;29;20466;-89
2023/01/10 06:06:33;;;;;;;22.70;9.57;;;;;;;15.08;nan;102751.31;4882770;29;20446;-88
2023/01/10 06:09:03;;;;;;;20.07;8.93;;;;;;;15.07;nan;102757.00;4867576;29;20965;-88
2023/01/10 06:11:35;;;;;;;17.13;9.57;;;;;;;15.03;nan;102750.97;4882661;29;20510;-88
2023/01/10 06:14:11;;;;;;;16.70;6.30;;;;;;;15.03;nan;102753.72;4882575;29;20575;-89
2023/01/10 06:16:40;;;;;;;15.40;4.57;;;;;;;14.99;nan;102752.38;4851815;29;20862;-87
2023/01/10 06:19:08;;;;;;;7.40;2.70;;;;;;;14.99;nan;102751.53;4852140;29;20458;-88
2023/01/10 06:21:37;;;;;;;8.20;2.00;;;;;;;14.99;nan;102752.38;4852086;29;20465;-88
2023/01/10 06:24:07;;;;;;;17.23;3.67;;;;;;;15.00;nan;102758.75;4882065;29;20462;-88
2023/01/10 06:26:38;;;;;;;8.13;3.37;;;;;;;14.99;nan;102763.41;4866381;29;20449;-89
2023/01/10 06:29:12;;;;;;;11.30;3.00;;;;;;;14.97;nan;102759.94;4864736;29;20462;-88
2023/01/10 06:31:42;;;;;;;15.00;3.20;;;;;;;14.96;nan;102766.50;4882079;29;20461;-87
2023/01/10 06:34:12;;;;;;;3.87;2.27;;;;;;;14.92;nan;102762.34;4864059;29;21036;-89
2023/01/10 06:36:41;;;;;;;6.00;2.07;;;;;;;14.93;nan;102755.81;4878360;29;20472;-89
2023/01/10 06:39:11;;;;;;;7.87;1.90;;;;;;;14.91;nan;102765.28;4852454;29;20446;-89
2023/01/10 06:41:39;;;;;;;5.53;2.20;;;;;;;14.91;nan;102771.66;4882040;29;20518;-89
2023/01/10 06:44:07;;;;;;;10.00;2.13;;;;;;;14.95;nan;102777.66;4882005;29;20516;-89
2023/01/10 06:46:35;;;;;;;5.33;2.07;;;;;;;14.90;nan;102780.94;4881072;29;20876;-88
2023/01/10 06:49:05;;;;;;;8.70;2.20;;;;;;;14.93;nan;102780.59;4869953;29;20503;-88
2023/01/10 06:51:34;;;;;;;5.63;2.50;;;;;;;14.92;nan;102778.88;4900168;29;20453;-90
2023/01/10 06:54:05;;;;;;;5.13;2.07;;;;;;;14.95;nan;102788.69;4869854;29;20491;-90
2023/01/10 06:56:33;;;;;;;7.90;1.97;;;;;;;14.93;nan;102777.84;4931791;29;20456;-90
2023/01/10 06:59:02;;;;;;;12.00;1.63;;;;;;;14.95;nan;102791.44;4897476;29;20449;-90
2023/01/10 07:01:32;;;;;;;5.67;1.90;;;;;;;14.96;nan;102796.78;4829594;29;20556;-90
2023/01/10 07:04:00;;;;;;;7.50;2.07;;;;;;;14.96;nan;102798.66;4832138;29;20455;-89
2023/01/10 07:06:28;;;;;;;7.30;1.90;;;;;;;14.95;nan;102800.56;4828990;29;20519;-89
2023/01/10 07:08:57;;;;;;;13.20;2.10;;;;;;;14.93;nan;102799.88;4834782;29;20483;-90
2023/01/10 07:11:24;;;;;;;3.63;1.90;;;;;;;14.94;nan;102804.34;4859078;29;20831;-89
2023/01/10 07:13:53;;;;;;;7.10;2.63;;;;;;;14.93;nan;102808.13;4828922;29;20556;-89
2023/01/10 07:16:21;;;;;;;6.30;2.33;;;;;;;14.93;nan;102818.28;4844224;29;20526;-89
2023/01/10 07:18:51;;;;;;;6.93;2.70;;;;;;;14.94;nan;102814.50;4828726;29;20460;-89
2023/01/10 07:21:19;;;;;;;9.07;3.30;;;;;;;14.92;nan;102813.81;4800980;29;20447;-89
2023/01/10 07:23:50;;;;;;;6.77;3.40;;;;;;;14.92;nan;102813.81;4771858;30;20981;-89
2023/01/10 07:26:18;;;;;;;14.63;5.30;;;;;;;14.94;nan;102825.50;4791885;29;20865;-89
2023/01/10 07:28:49;;;;;;;11.47;4.97;;;;;;;14.94;nan;102825.50;4821840;29;20496;-90
2023/01/10 07:31:19;;;;;;;12.33;4.93;;;;;;;14.92;nan;102824.81;4822557;29;20457;-89
2023/01/10 07:33:50;;;;;;;11.40;4.13;;;;;;;14.93;nan;102821.03;4821830;29;20465;-90
2023/01/10 07:36:26;;;;;;;10.90;5.50;;;;;;;14.92;nan;102827.56;4822077;29;20462;-89
2023/01/10 07:38:55;;;;;;;11.50;5.10;;;;;;;14.91;nan;102834.97;4846185;29;20460;-89
2023/01/10 07:41:24;;;;;;;11.53;5.60;;;;;;;14.93;nan;102815.53;4884893;29;20473;-89
2023/01/10 07:43:52;;;;;;;10.27;5.00;;;;;;;14.93;nan;102819.16;4866534;29;20453;-89
2023/01/10 07:46:21;;;;;;;21.77;6.10;;;;;;;14.92;nan;102822.94;4865859;29;20520;-89
2023/01/10 07:48:50;;;;;;;9.53;4.17;;;;;;;14.91;nan;102821.22;4919021;29;20995;-89
2023/01/10 07:51:18;;;;;;;7.50;4.23;;;;;;;14.94;nan;102828.28;4872958;29;20490;-89
2023/01/10 07:53:46;;;;;;;9.63;4.00;;;;;;;14.88;nan;102817.94;4873369;29;20463;-90
2023/01/10 07:56:14;;;;;;;8.50;3.60;;;;;;;14.92;nan;102828.44;4873280;29;21005;-89
2023/01/10 07:58:45;;;;;;;10.80;3.90;;;;;;;14.93;nan;102832.91;4872678;29;20824;-90
2023/01/10 08:01:14;;;;;;;12.87;4.30;;;;;;;14.91;nan;102829.47;4872719;29;20441;-89
2023/01/10 08:03:44;;;;;;;18.27;4.30;;;;;;;14.93;nan;102832.06;4870997;29;20445;-91
2023/01/10 08:06:14;;;;;;;7.83;3.43;;;;;;;14.95;nan;102846.50;4887290;29;20512;-90
2023/01/10 08:08:42;;;;;;;8.03;3.50;;;;;;;14.92;nan;102844.97;4888094;29;20489;-90
2023/01/10 08:11:10;;;;;;;9.17;3.70;;;;;;;14.95;nan;102847.38;4872524;29;20452;-90
2023/01/10 08:13:38;;;;;;;8.57;3.90;;;;;;;14.93;nan;102843.94;4884490;29;20453;-90
2023/01/10 08:16:06;;;;;;;13.77;4.93;;;;;;;14.95;nan;102846.50;4872075;29;20457;-90
2023/01/10 08:18:34;;;;;;;6.77;4.17;;;;;;;14.98;nan;102848.94;4887425;29;20818;-90
2023/01/10 08:21:02;;;;;;;7.33;3.00;;;;;;;15.02;nan;102845.63;4798270;29;20824;-90
2023/01/10 08:23:31;;;;;;;15.33;3.53;;;;;;;15.06;nan;102863.53;4812727;29;20448;-91
2023/01/10 08:26:04;;;;;;;7.67;3.10;;;;;;;15.05;nan;102852.69;4828242;29;20468;-91
2023/01/10 08:28:34;;;;;;;10.93;3.13;;;;;;;15.11;nan;102860.28;4857703;29;20477;-90
2023/01/10 08:31:10;;;;;;;8.50;2.50;;;;;;;15.15;nan;102865.28;4811544;29;20444;-90
2023/01/10 08:33:40;;;;;;;22.60;6.10;;;;;;;15.15;nan;102862.53;4775788;29;20443;-90
2023/01/10 08:36:15;;;;;;;14.70;6.07;;;;;;;15.19;nan;102868.56;4774209;30;20459;-89
2023/01/10 08:38:50;;;;;;;17.40;4.30;;;;;;;15.20;nan;102868.34;4788528;29;20455;-90
2023/01/10 08:41:18;;;;;;;26.30;13.30;;;;;;;15.21;nan;102858.22;4813496;29;20515;-90
2023/01/10 08:43:49;;;;;;;43.90;23.47;;;;;;;15.29;nan;102868.38;4798597;29;20496;-90
2023/01/10 08:46:19;;;;;;;26.30;15.43;;;;;;;15.30;nan;102867.34;4798002;29;20481;-91
2023/01/10 08:48:54;;;;;;;20.50;9.33;;;;;;;15.34;nan;102869.59;4795227;29;21134;-90
2023/01/10 08:51:22;;;;;;;38.30;13.23;;;;;;;15.38;nan;102872.84;4809404;29;20509;-89
2023/01/10 08:53:50;;;;;;;21.57;7.47;;;;;;;15.41;nan;102876.09;4797645;29;20460;-90
2023/01/10 08:56:22;;;;;;;27.93;14.47;;;;;;;15.48;nan;102881.78;4820456;29;20445;-90
2023/01/10 08:58:55;;;;;;;44.63;19.07;;;;;;;15.51;nan;102874.03;4881077;29;20443;-91
2023/01/10 09:01:24;;;;;;;27.70;9.10;;;;;;;15.51;nan;102871.28;4878854;29;20454;-91
2023/01/10 09:03:53;;;;;;;12.37;6.50;;;;;;;15.62;nan;102878.34;4893281;29;20944;-90
2023/01/10 09:06:21;;;;;;;12.43;3.80;;;;;;;15.66;nan;102882.50;4902876;29;20452;-90
2023/01/10 09:08:48;;;;;;;11.57;3.20;;;;;;;15.69;nan;102882.16;4873157;29;20496;-90
2023/01/10 09:11:17;;;;;;;10.27;2.80;;;;;;;15.81;nan;102891.75;4899268;29;20967;-90
2023/01/10 09:13:49;;;;;;;7.67;2.67;;;;;;;15.84;nan;102882.28;4892923;29;20998;-91
2023/01/10 09:16:18;;;;;;;15.20;3.47;;;;;;;16.00;nan;102889.63;4887622;29;20438;-91
2023/01/10 09:18:47;;;;;;;7.63;3.27;;;;;;;16.05;nan;102887.22;4871801;29;20463;-91
2023/01/10 09:21:15;;;;;;;25.77;13.03;;;;;;;16.04;nan;102886.34;4887261;29;20465;-90
2023/01/10 09:23:45;;;;;;;12.37;6.60;;;;;;;16.10;nan;102890.31;4871596;29;20507;-90
2023/01/10 09:26:23;;;;;;;9.83;4.97;;;;;;;16.12;nan;102902.03;4876087;29;20453;-95
2023/01/10 09:44:37;;;;;;;19.10;10.63;;;;;;;16.44;nan;102915.69;4900229;29;20449;-92
2023/01/10 09:47:27;;;;;;;7.87;5.00;;;;;;;16.51;nan;102921.38;4909166;29;20899;-89
2023/01/10 09:50:15;;;;;;;8.07;2.80;;;;;;;16.56;nan;102918.91;4886448;29;20461;-90
2023/01/10 09:53:08;;;;;;;3.83;1.30;;;;;;;16.59;nan;102919.41;4902428;29;20460;-90
2023/01/10 09:55:37;;;;;;;4.13;1.20;;;;;;;16.61;nan;102923.88;4917032;29;20457;-90
2023/01/10 09:58:15;;;;;;;3.87;1.20;;;;;;;16.68;nan;102923.03;4898348;29;20469;-90
2023/01/10 10:00:47;;;;;;;4.73;1.60;;;;;;;16.71;nan;102921.81;4868619;29;20442;-90
2023/01/10 10:03:23;;;;;;;4.13;1.43;;;;;;;16.80;nan;102931.75;4885110;29;20456;-90
2023/01/10 10:05:53;;;;;;;7.37;1.13;;;;;;;16.93;nan;102943.09;4876400;29;20958;-90
2023/01/10 10:08:34;;;;;;;3.63;0.80;;;;;;;16.97;nan;102941.66;4899041;29;20489;-92
2023/01/10 10:11:35;;;;;;;4.60;1.60;;;;;;;16.98;nan;102948.06;4884885;29;20456;-92
2023/01/10 10:14:29;;;;;;;3.10;1.00;;;;;;;16.96;nan;102953.75;4886335;29;20464;-92
2023/01/10 10:17:01;;;;;;;3.30;1.13;;;;;;;17.00;nan;102946.81;4896978;29;20469;-90
2023/01/10 10:19:47;;;;;;;5.00;1.27;;;;;;;17.01;nan;102951.31;4884770;29;20460;-91
2023/01/10 10:22:56;;;;;;;5.20;1.10;;;;;;;16.95;nan;102935.47;4901346;29;20457;-91
2023/01/10 10:25:57;;;;;;;4.20;1.60;;;;;;;16.97;nan;102943.56;4841559;29;20452;-91
2023/01/10 10:28:33;;;;;;;9.23;4.00;;;;;;;16.97;nan;102944.44;4841090;29;20480;-91
2023/01/10 10:31:15;;;;;;;6.90;3.97;;;;;;;17.00;nan;102948.72;4826726;29;20464;-90
2023/01/10 10:34:06;;;;;;;5.57;1.00;;;;;;;17.01;nan;102948.56;4842081;29;20452;-91
2023/01/10 10:36:56;;;;;;;3.00;1.20;;;;;;;17.06;nan;102948.88;4827099;29;20456;-89
2023/01/10 10:39:31;;;;;;;7.43;2.50;;;;;;;17.13;nan;102958.13;4826523;29;20464;-89
2023/01/10 10:41:59;;;;;;;7.47;3.20;;;;;;;17.19;nan;102949.13;4813196;29;20835;-89
2023/01/10 10:44:26;;;;;;;7.80;2.30;;;;;;;17.29;nan;102948.03;4812030;29;20452;-90
2023/01/10 10:46:56;;;;;;;2.30;0.80;;;;;;;17.30;nan;102947.84;4826475;29;20488;-90
2023/01/10 10:49:33;;;;;;;2.60;0.60;;;;;;;17.43;nan;102955.50;4812790;29;20500;-90
2023/01/10 10:52:02;;;;;;;1.80;0.50;;;;;;;17.53;nan;102967.16;4841773;29;20456;-89
2023/01/10 10:54:31;;;;;;;7.83;2.13;;;;;;;17.65;nan;102954.66;4810990;29;20449;-90
2023/01/10 10:56:58;;;;;;;7.63;4.73;;;;;;;17.84;nan;102954.13;4811074;29;21073;-90
2023/01/10 10:59:28;;;;;;;7.17;2.33;;;;;;;18.03;nan;102941.66;4846378;29;20453;-88
2023/01/10 11:01:56;;;;;;;3.67;1.47;;;;;;;18.28;nan;102950.53;4886043;29;20453;-90
2023/01/10 11:04:25;;;;;;;5.70;2.67;;;;;;;18.50;nan;102937.63;4870386;29;20452;-90
2023/01/10 11:06:52;;;;;;;5.83;2.80;;;;;;;18.59;nan;102937.38;4885381;29;20457;-90
2023/01/10 11:09:32;;;;;;;3.73;0.70;;;;;;;18.48;nan;102936.97;4870308;29;20837;-90
2023/01/10 11:12:01;;;;;;;4.13;1.20;;;;;;;18.36;nan;102936.59;4873486;29;20512;-90
2023/01/10 11:14:45;;;;;;;7.53;1.07;;;;;;;18.24;nan;102943.69;4870087;29;20451;-90
2023/01/10 11:17:39;;;;;;;5.37;1.13;;;;;;;18.05;nan;102944.25;4885905;29;20453;-90
2023/01/10 11:20:15;;;;;;;5.70;1.67;;;;;;;17.87;nan;102934.41;4886373;29;20480;-90
2023/01/10 11:22:50;;;;;;;5.20;1.50;;;;;;;17.77;nan;102925.50;4870679;29;20444;-90
2023/01/10 11:25:20;;;;;;;2.60;0.77;;;;;;;17.70;nan;102938.38;4874382;29;20456;-90
2023/01/10 11:27:59;;;;;;;2.47;0.60;;;;;;;17.66;nan;102939.78;4889158;29;20511;-90
2023/01/10 11:30:29;;;;;;;3.13;0.60;;;;;;;17.61;nan;102931.16;4875089;29;20527;-90
2023/01/10 11:32:59;;;;;;;2.83;0.60;;;;;;;17.59;nan;102931.34;4874094;29;20457;-90
2023/01/10 11:35:32;;;;;;;6.97;3.13;;;;;;;17.57;nan;102921.50;4888813;29;20456;-90
2023/01/10 11:38:16;;;;;;;4.13;1.73;;;;;;;17.57;nan;102915.97;4873743;29;20460;-89
2023/01/10 11:41:04;;;;;;;3.60;1.40;;;;;;;17.70;nan;102919.03;4875435;29;20448;-89
2023/01/10 11:43:37;;;;;;;11.30;3.97;;;;;;;17.95;nan;102906.63;4873691;29;20456;-90
2023/01/10 11:46:11;;;;;;;36.17;19.77;;;;;;;18.33;nan;102892.69;4832039;29;20513;-90
2023/01/10 11:48:46;;;;;;;31.90;20.60;;;;;;;18.77;nan;102883.47;4847145;29;20490;-90
2023/01/10 11:51:54;;;;;;;14.60;9.60;;;;;;;19.17;nan;102887.53;4837153;29;20455;-90
2023/01/10 11:54:26;;;;;;;9.77;4.63;;;;;;;19.26;nan;102878.84;4831934;29;20459;-90
2023/01/10 11:56:57;;;;;;;4.80;1.70;;;;;;;19.22;nan;102877.56;4831772;29;20495;-90
2023/01/10 11:59:25;;;;;;;12.87;6.57;;;;;;;19.14;nan;102880.44;4847286;29;20462;-90
2023/01/10 12:01:54;;;;;;;15.90;8.80;;;;;;;19.10;nan;102881.91;4832014;29;21003;-89
2023/01/10 12:04:22;;;;;;;7.53;3.37;;;;;;;19.03;nan;102882.91;4870931;29;20469;-90
2023/01/10 12:06:52;;;;;;;13.37;6.60;;;;;;;18.95;nan;102881.13;4873195;29;20449;-90
2023/01/10 12:10:02;;;;;;;16.20;4.40;;;;;;;18.90;nan;102872.53;4873291;29;20491;-90
2023/01/10 12:12:33;;;;;;;5.90;2.30;;;;;;;18.83;nan;102869.69;4896373;29;20464;-90
2023/01/10 12:15:21;;;;;;;8.20;1.73;;;;;;;18.82;nan;102867.13;4873215;29;21002;-90
2023/01/10 12:17:49;;;;;;;7.30;3.17;;;;;;;18.82;nan;102854.13;4887923;29;20975;-90
2023/01/10 12:20:17;;;;;;;7.10;3.77;;;;;;;18.94;nan;102860.00;4872716;29;20944;-90
2023/01/10 12:22:46;;;;;;;21.13;9.70;;;;;;;19.01;nan;102848.97;4887985;29;20463;-90
2023/01/10 12:25:31;;;;;;;10.30;5.10;;;;;;;19.03;nan;102844.97;4872651;29;20449;-90
2023/01/10 12:27:59;;;;;;;5.77;1.87;;;;;;;18.97;nan;102832.75;4873973;29;20944;-90